createdAt,value
2022-11-06T00:00:09.627Z,53.78
2022-11-06T00:02:38.922Z,55.22
2022-11-06T00:05:25.874Z,51.58
2022-11-06T00:07:53.768Z,54.97
2022-11-06T00:10:21.753Z,54.90
2022-11-06T00:12:49.675Z,55.78
2022-11-06T00:15:17.970Z,55.20
2022-11-06T00:17:49.858Z,58.00
2022-11-06T00:20:18.512Z,55.60
2022-11-06T00:22:46.480Z,58.63
2022-11-06T00:25:14.471Z,58.53
2022-11-06T00:27:43.745Z,59.90
2022-11-06T00:30:12.538Z,58.97
2022-11-06T00:32:40.725Z,59.10
2022-11-06T00:35:10.312Z,60.33
2022-11-06T00:37:38.198Z,58.00
2022-11-06T00:40:07.254Z,63.17
2022-11-06T00:42:35.105Z,61.30
2022-11-06T00:45:02.960Z,62.15
2022-11-06T00:47:30.839Z,61.47
2022-11-06T00:49:58.705Z,62.33
2022-11-06T00:52:30.464Z,65.80
2022-11-06T00:54:58.327Z,65.75
2022-11-06T00:57:26.199Z,62.58
2022-11-06T00:59:54.048Z,62.85
2022-11-06T01:02:22.107Z,62.40
2022-11-06T01:04:50.039Z,62.80
2022-11-06T01:07:18.646Z,62.05
2022-11-06T01:09:48.142Z,63.95
2022-11-06T01:12:16.101Z,63.42
2022-11-06T01:14:44.609Z,65.72
2022-11-06T01:17:13.201Z,65.30
2022-11-06T01:19:41.695Z,65.28
2022-11-06T01:22:09.633Z,62.05
2022-11-06T01:24:37.679Z,60.45
2022-11-06T01:29:54.886Z,59.47
2022-11-06T01:32:22.826Z,58.90
2022-11-06T01:34:51.017Z,56.13
2022-11-06T01:37:18.892Z,54.63
2022-11-06T01:39:46.797Z,57.20
2022-11-06T01:42:17.674Z,55.88
2022-11-06T01:45:34.283Z,56.50
2022-11-06T01:48:02.896Z,54.75
2022-11-06T01:50:31.051Z,54.45
2022-11-06T01:53:02.307Z,54.15
2022-11-06T01:55:33.843Z,53.28
2022-11-06T01:58:05.774Z,54.30
2022-11-06T02:00:33.970Z,52.00
2022-11-06T02:03:02.738Z,52.13
2022-11-06T02:05:31.579Z,50.13
2022-11-06T02:08:01.167Z,50.85
2022-11-06T02:10:29.883Z,51.38
2022-11-06T02:13:12.685Z,50.28
2022-11-06T02:15:48.583Z,49.33
2022-11-06T02:18:37.631Z,49.17
2022-11-06T02:21:27.146Z,47.15
2022-11-06T02:24:19.630Z,47.75
2022-11-06T02:27:05.053Z,48.97
2022-11-06T02:32:08.572Z,48.65
2022-11-06T02:34:38.342Z,46.07
2022-11-06T02:37:11.346Z,46.70
2022-11-06T02:39:42.906Z,47.47
2022-11-06T02:42:16.063Z,45.90
2022-11-06T02:44:45.448Z,45.70
2022-11-06T02:47:16.022Z,44.92
2022-11-06T02:49:47.228Z,44.60
2022-11-06T02:52:19.575Z,44.72
2022-11-06T02:54:52.593Z,43.50
2022-11-06T02:57:24.424Z,44.92
2022-11-06T02:59:59.593Z,45.38
2022-11-06T03:02:31.805Z,43.10
2022-11-06T03:05:05.443Z,43.00
2022-11-06T03:07:38.418Z,40.45
2022-11-06T03:10:08.358Z,42.00
2022-11-06T03:12:50.912Z,41.00
2022-11-06T03:15:27.398Z,41.28
2022-11-06T03:18:03.579Z,40.90
2022-11-06T03:20:37.342Z,40.35
2022-11-06T03:23:12.161Z,40.92
2022-11-06T03:25:46.607Z,39.75
2022-11-06T03:28:22.999Z,39.60
2022-11-06T03:30:55.290Z,38.13
2022-11-06T03:33:27.099Z,37.85
2022-11-06T03:36:01.416Z,38.03
2022-11-06T03:38:38.321Z,37.95
2022-11-06T03:41:14.193Z,36.55
2022-11-06T03:43:47.082Z,36.85
2022-11-06T03:46:19.380Z,36.00
2022-11-06T03:48:51.664Z,35.05
2022-11-06T03:51:23.237Z,34.38
2022-11-06T03:53:53.699Z,34.15
2022-11-06T03:56:26.927Z,33.00
2022-11-06T03:58:57.569Z,31.98
2022-11-06T04:01:32.826Z,33.33
2022-11-06T04:04:05.371Z,30.98
2022-11-06T04:06:38.386Z,31.40
2022-11-06T04:09:26.549Z,31.75
2022-11-06T04:12:13.865Z,31.02
2022-11-06T04:14:47.253Z,30.35
2022-11-06T04:17:16.857Z,30.88
2022-11-06T04:19:50.879Z,30.58
2022-11-06T04:22:27.490Z,29.75
2022-11-06T04:25:22.735Z,28.17
2022-11-06T04:28:04.221Z,27.88
2022-11-06T04:30:40.312Z,29.35
2022-11-06T04:33:13.296Z,28.13
2022-11-06T04:35:54.329Z,27.35
2022-11-06T04:38:31.923Z,26.10
2022-11-06T04:41:09.251Z,25.48
2022-11-06T04:43:43.837Z,26.40
2022-11-06T04:46:18.574Z,25.30
2022-11-06T04:48:48.171Z,24.88
2022-11-06T04:51:20.623Z,26.08
2022-11-06T04:53:51.156Z,25.58
2022-11-06T04:56:25.766Z,24.90
2022-11-06T04:58:53.975Z,23.67
2022-11-06T05:01:23.290Z,23.63
2022-11-06T05:03:51.272Z,22.60
2022-11-06T05:06:19.258Z,23.25
2022-11-06T05:08:47.167Z,22.65
2022-11-06T05:11:15.108Z,22.70
2022-11-06T05:13:43.019Z,22.73
2022-11-06T05:16:10.921Z,22.30
2022-11-06T05:18:40.140Z,22.42
2022-11-06T05:21:25.526Z,21.60
2022-11-06T05:26:21.153Z,21.30
2022-11-06T05:28:49.319Z,19.63
2022-11-06T05:31:17.293Z,20.73
2022-11-06T05:33:46.578Z,19.98
2022-11-06T05:36:14.445Z,19.67
2022-11-06T05:38:42.377Z,19.65
2022-11-06T05:41:10.293Z,18.88
2022-11-06T05:43:38.418Z,19.83
2022-11-06T05:46:11.586Z,19.23
2022-11-06T05:48:53.289Z,18.30
2022-11-06T05:51:21.734Z,18.10
2022-11-06T05:53:49.688Z,17.17
2022-11-06T05:56:17.627Z,17.52
2022-11-06T05:58:45.567Z,17.08
2022-11-06T06:01:13.916Z,17.58
2022-11-06T06:03:41.815Z,17.13
2022-11-06T06:06:11.039Z,17.45
2022-11-06T06:08:38.923Z,17.65
2022-11-06T06:11:07.163Z,17.38
2022-11-06T06:13:37.838Z,16.40
2022-11-06T06:16:06.998Z,15.65
2022-11-06T06:18:34.913Z,16.08
2022-11-06T06:21:02.808Z,16.20
2022-11-06T06:23:33.351Z,14.93
2022-11-06T06:26:01.228Z,15.45
2022-11-06T06:28:29.085Z,13.65
2022-11-06T06:31:01.186Z,13.57
2022-11-06T06:33:29.787Z,14.32
2022-11-06T06:35:57.683Z,13.35
2022-11-06T06:38:26.518Z,13.68
2022-11-06T06:40:56.271Z,12.82
2022-11-06T06:43:24.118Z,12.48
2022-11-06T06:45:51.973Z,12.32
2022-11-06T06:48:19.824Z,11.30
2022-11-06T06:50:47.667Z,12.32
2022-11-06T06:53:15.522Z,12.18
2022-11-06T06:55:43.452Z,11.77
2022-11-06T06:58:17.740Z,10.73
2022-11-06T07:00:46.190Z,11.68
2022-11-06T07:03:14.097Z,10.98
2022-11-06T07:05:42.050Z,10.27
2022-11-06T07:08:10.066Z,10.25
2022-11-06T07:10:38.100Z,11.25
2022-11-06T07:13:06.675Z,9.93
2022-11-06T07:15:36.180Z,9.30
2022-11-06T07:18:04.427Z,9.95
2022-11-06T07:20:32.830Z,10.98
2022-11-06T07:23:00.821Z,9.82
2022-11-06T07:25:28.715Z,10.13
2022-11-06T07:28:01.618Z,9.23
2022-11-06T07:30:30.579Z,9.18
2022-11-06T07:33:01.397Z,8.77
2022-11-06T07:35:29.412Z,8.73
2022-11-06T07:37:57.275Z,7.95
2022-11-06T07:40:25.265Z,8.40
2022-11-06T07:42:53.128Z,8.02
2022-11-06T07:45:21.064Z,7.93
2022-11-06T07:47:48.913Z,7.45
2022-11-06T07:50:18.212Z,6.32
2022-11-06T07:52:46.066Z,6.00
2022-11-06T07:55:13.927Z,7.30
2022-11-06T07:57:42.038Z,5.75
2022-11-06T08:00:11.046Z,6.07
2022-11-06T08:02:39.021Z,6.05
2022-11-06T08:05:07.256Z,5.80
2022-11-06T08:07:36.628Z,5.40
2022-11-06T08:10:05.265Z,5.60
2022-11-06T08:12:33.156Z,5.22
2022-11-06T08:15:01.021Z,4.72
2022-11-06T08:17:30.023Z,4.60
2022-11-06T08:19:57.970Z,5.07
2022-11-06T08:22:25.894Z,4.28
2022-11-06T08:24:55.109Z,4.50
2022-11-06T08:27:22.990Z,4.38
2022-11-06T08:29:50.865Z,4.53
2022-11-06T08:32:18.792Z,4.68
2022-11-06T08:34:46.647Z,4.57
2022-11-06T08:37:14.511Z,4.65
2022-11-06T08:39:44.357Z,4.40
2022-11-06T08:42:13.960Z,4.07
2022-11-06T08:44:42.424Z,3.90
2022-11-06T08:47:10.627Z,3.95
2022-11-06T08:49:38.513Z,4.35
2022-11-06T08:52:06.378Z,4.15
2022-11-06T08:54:34.234Z,4.10
2022-11-06T08:57:02.141Z,4.60
2022-11-06T08:59:32.741Z,4.38
2022-11-06T09:02:01.325Z,4.20
2022-11-06T09:04:29.367Z,4.07
2022-11-06T09:06:57.797Z,3.65
2022-11-06T09:09:31.812Z,4.43
2022-11-06T09:12:00.386Z,4.05
2022-11-06T09:14:28.522Z,3.92
2022-11-06T09:16:57.787Z,3.40
2022-11-06T09:19:25.684Z,4.22
2022-11-06T09:21:54.890Z,4.30
2022-11-06T09:24:37.545Z,4.75
2022-11-06T09:27:11.267Z,3.97
2022-11-06T09:29:40.719Z,3.38
2022-11-06T09:32:09.989Z,3.65
2022-11-06T09:34:37.850Z,3.42
2022-11-06T09:37:05.881Z,3.55
2022-11-06T09:39:33.750Z,4.03
2022-11-06T09:42:07.179Z,3.42
2022-11-06T09:44:52.980Z,3.40
2022-11-06T09:47:26.092Z,3.28
2022-11-06T09:49:56.331Z,4.15
2022-11-06T09:52:31.417Z,3.65
2022-11-06T09:55:02.899Z,3.10
2022-11-06T09:57:37.687Z,3.38
2022-11-06T10:00:07.707Z,3.33
2022-11-06T10:02:43.107Z,3.28
2022-11-06T10:05:19.178Z,3.20
2022-11-06T10:07:47.945Z,3.65
2022-11-06T10:10:17.759Z,3.15
2022-11-06T10:13:02.498Z,3.67
2022-11-06T10:15:35.255Z,3.70
2022-11-06T10:18:14.045Z,3.33
2022-11-06T10:20:49.371Z,2.92
2022-11-06T10:23:21.426Z,2.80
2022-11-06T10:26:05.038Z,3.40
2022-11-06T10:28:49.450Z,2.90
2022-11-06T10:31:26.767Z,5.57
2022-11-06T10:34:01.168Z,3.35
2022-11-06T10:36:35.769Z,3.30
2022-11-06T10:39:05.735Z,3.45
2022-11-06T10:41:37.854Z,3.22
2022-11-06T10:44:11.156Z,3.30
2022-11-06T10:46:42.160Z,2.97
2022-11-06T10:49:26.896Z,3.38
2022-11-06T10:52:24.970Z,2.05
2022-11-06T10:55:10.980Z,3.15
2022-11-06T10:57:44.355Z,2.90
2022-11-06T11:00:15.206Z,2.55
2022-11-06T11:02:47.491Z,2.75
2022-11-06T11:05:18.876Z,2.97
2022-11-06T11:07:48.867Z,2.75
2022-11-06T11:10:28.279Z,3.05
2022-11-06T11:13:00.024Z,2.80
2022-11-06T11:15:32.121Z,2.60
2022-11-06T11:18:17.914Z,2.30
2022-11-06T11:20:48.563Z,2.67
2022-11-06T11:23:20.034Z,2.88
2022-11-06T11:25:50.346Z,2.53
2022-11-06T11:28:28.689Z,2.60
2022-11-06T11:31:05.769Z,3.08
2022-11-06T11:33:34.785Z,2.65
2022-11-06T11:36:06.584Z,2.92
2022-11-06T11:38:36.433Z,2.75
2022-11-06T11:41:09.135Z,2.88
2022-11-06T11:43:37.127Z,3.00
2022-11-06T11:46:14.541Z,2.50
2022-11-06T11:48:44.369Z,3.22
2022-11-06T11:51:38.281Z,2.60
2022-11-06T11:54:16.974Z,2.55
2022-11-06T11:57:04.644Z,2.70
2022-11-06T11:59:37.922Z,3.08
2022-11-06T12:02:16.495Z,2.30
2022-11-06T12:04:50.622Z,2.40
2022-11-06T12:07:27.083Z,2.50
2022-11-06T12:09:55.304Z,2.65
2022-11-06T12:12:25.776Z,2.38
2022-11-06T12:15:19.535Z,2.42
2022-11-06T12:17:53.474Z,2.80
2022-11-06T12:20:26.174Z,2.60
2022-11-06T12:22:59.154Z,2.35
2022-11-06T12:25:30.079Z,2.78
2022-11-06T12:28:00.778Z,2.28
2022-11-06T12:30:32.843Z,2.40
2022-11-06T12:33:05.532Z,2.53
2022-11-06T12:35:38.732Z,2.30
2022-11-06T12:38:19.110Z,2.55
2022-11-06T12:40:51.581Z,2.03
2022-11-06T12:43:28.325Z,2.50
2022-11-06T12:46:11.105Z,1.98
2022-11-06T12:48:53.199Z,2.38
2022-11-06T12:51:26.769Z,2.22
2022-11-06T12:54:13.415Z,2.25
2022-11-06T12:56:50.716Z,2.40
2022-11-06T12:59:33.961Z,1.70
2022-11-06T13:02:16.817Z,1.90
2022-11-06T13:04:53.864Z,2.30
2022-11-06T13:07:51.449Z,2.55
2022-11-06T13:10:33.270Z,1.98
2022-11-06T13:13:15.540Z,2.33
2022-11-06T13:15:53.641Z,1.88
2022-11-06T13:18:26.487Z,1.90
2022-11-06T13:21:01.370Z,2.08
2022-11-06T13:23:34.082Z,1.92
2022-11-06T13:26:10.544Z,2.38
2022-11-06T13:28:42.389Z,1.83
2022-11-06T13:31:13.383Z,1.92
2022-11-06T13:33:44.639Z,1.90
2022-11-06T13:36:12.727Z,1.35
2022-11-06T13:38:44.212Z,1.45
2022-11-06T13:41:16.484Z,1.45
2022-11-06T13:43:46.889Z,1.48
2022-11-06T13:46:25.668Z,1.60
2022-11-06T13:49:05.783Z,2.03
2022-11-06T13:51:42.956Z,2.85
2022-11-06T13:54:20.999Z,2.78
2022-11-06T13:57:27.173Z,3.10
2022-11-06T14:02:45.288Z,3.80
2022-11-06T14:05:40.311Z,3.53
2022-11-06T14:08:18.863Z,4.40
2022-11-06T14:10:57.210Z,4.20
2022-11-06T14:13:32.040Z,4.03
2022-11-06T14:16:02.061Z,5.25
2022-11-06T14:18:30.155Z,4.45
2022-11-06T14:21:29.838Z,3.80
2022-11-06T14:24:07.660Z,4.15
2022-11-06T14:26:41.423Z,4.50
2022-11-06T14:29:54.152Z,4.40
2022-11-06T14:32:44.341Z,3.88
2022-11-06T14:35:51.780Z,4.97
2022-11-06T14:38:38.227Z,4.07
2022-11-06T14:41:51.511Z,4.53
2022-11-06T14:44:42.825Z,4.32
2022-11-06T14:47:26.550Z,3.97
2022-11-06T14:49:58.422Z,4.30
2022-11-06T14:52:26.701Z,3.97
2022-11-06T14:55:04.505Z,4.18
2022-11-06T14:57:46.256Z,4.78
2022-11-06T15:00:34.108Z,4.22
2022-11-06T15:03:02.993Z,3.85
2022-11-06T15:05:42.130Z,4.03
2022-11-06T15:08:10.520Z,3.88
2022-11-06T15:10:55.216Z,4.20
2022-11-06T15:13:32.963Z,4.13
2022-11-06T15:16:12.975Z,3.60
2022-11-06T15:18:44.258Z,3.90
2022-11-06T15:21:23.193Z,3.10
2022-11-06T15:24:05.386Z,4.20
2022-11-06T15:26:38.427Z,3.22
2022-11-06T15:29:25.954Z,3.17
2022-11-06T15:32:00.002Z,3.38
2022-11-06T15:34:31.482Z,3.87
2022-11-06T15:37:09.350Z,3.63
2022-11-06T15:39:41.660Z,3.15
2022-11-06T15:42:10.775Z,3.30
2022-11-06T15:44:42.156Z,3.35
2022-11-06T15:47:21.796Z,3.00
2022-11-06T15:49:49.734Z,3.03
2022-11-06T15:52:19.670Z,3.72
2022-11-06T15:54:49.152Z,3.50
2022-11-06T15:57:22.056Z,3.25
2022-11-06T15:59:50.724Z,3.75
2022-11-06T16:02:21.040Z,3.17
2022-11-06T16:04:50.351Z,6.80
2022-11-06T16:07:20.666Z,11.93
2022-11-06T16:09:49.091Z,15.68
2022-11-06T16:12:19.389Z,16.05
2022-11-06T16:14:47.325Z,20.63
2022-11-06T16:17:23.684Z,22.98
2022-11-06T16:19:53.406Z,24.40
2022-11-06T16:22:29.995Z,29.70
2022-11-06T16:25:01.478Z,29.30
2022-11-06T16:27:35.682Z,34.15
2022-11-06T16:30:04.124Z,38.00
2022-11-06T16:32:37.941Z,38.63
2022-11-06T16:35:33.053Z,42.75
2022-11-06T16:38:41.526Z,47.05
2022-11-06T16:41:11.140Z,48.55
2022-11-06T16:43:39.473Z,45.13
2022-11-06T16:46:09.087Z,50.35
2022-11-06T16:48:38.767Z,52.92
2022-11-06T16:51:09.379Z,50.25
2022-11-06T16:53:58.332Z,51.08
2022-11-06T16:56:29.805Z,57.05
2022-11-06T16:59:03.669Z,58.83
2022-11-06T17:01:40.050Z,59.03
2022-11-06T17:04:14.200Z,54.75
2022-11-06T17:06:45.763Z,55.43
2022-11-06T17:09:30.366Z,57.47
2022-11-06T17:11:59.420Z,55.17
2022-11-06T17:14:27.446Z,55.55
2022-11-06T17:16:57.865Z,56.80
2022-11-06T17:19:27.374Z,53.25
2022-11-06T17:21:55.824Z,54.30
2022-11-06T17:24:39.049Z,53.88
2022-11-06T17:27:08.306Z,53.22
2022-11-06T17:29:37.052Z,50.72
2022-11-06T17:32:05.076Z,52.83
2022-11-06T17:34:33.322Z,55.70
2022-11-06T17:37:01.264Z,59.08
2022-11-06T17:39:29.161Z,53.03
2022-11-06T17:41:57.099Z,53.92
2022-11-06T17:44:26.362Z,57.95
2022-11-06T17:46:54.260Z,50.88
2022-11-06T17:49:22.107Z,57.30
2022-11-06T17:51:58.141Z,41.83
2022-11-06T17:54:28.297Z,50.42
2022-11-06T17:56:57.020Z,54.63
2022-11-06T17:59:26.780Z,45.10
2022-11-06T18:01:56.214Z,45.38
2022-11-06T18:04:26.426Z,50.35
2022-11-06T18:06:55.033Z,52.42
2022-11-06T18:09:24.118Z,49.78
2022-11-06T18:11:52.943Z,49.75
2022-11-06T18:14:21.860Z,47.50
2022-11-06T18:16:51.572Z,46.38
2022-11-06T18:19:21.353Z,45.83
2022-11-06T18:21:49.751Z,41.85
2022-11-06T18:24:17.643Z,41.03
2022-11-06T18:26:45.633Z,44.00
2022-11-06T18:29:14.405Z,37.42
2022-11-06T18:31:42.387Z,38.53
2022-11-06T18:34:19.466Z,42.08
2022-11-06T18:36:48.888Z,43.35
2022-11-06T18:39:16.957Z,43.08
2022-11-06T18:41:44.878Z,44.60
2022-11-06T18:44:12.786Z,42.75
2022-11-06T18:46:40.678Z,43.95
2022-11-06T18:49:10.623Z,42.38
2022-11-06T18:51:40.745Z,47.47
2022-11-06T18:54:11.173Z,46.30
2022-11-06T18:56:39.129Z,46.28
2022-11-06T18:59:08.153Z,49.70
2022-11-06T19:01:36.335Z,47.03
2022-11-06T19:04:05.357Z,50.13
2022-11-06T19:06:33.436Z,51.47
2022-11-06T19:09:02.966Z,51.20
2022-11-06T19:11:30.928Z,54.22
2022-11-06T19:13:58.928Z,55.35
2022-11-06T19:16:27.075Z,54.65
2022-11-06T19:21:29.673Z,58.30
2022-11-06T19:24:03.312Z,59.25
2022-11-06T19:26:34.685Z,60.05
2022-11-06T19:29:02.903Z,60.38
2022-11-06T19:31:31.778Z,60.08
2022-11-06T19:34:01.201Z,60.53
2022-11-06T19:36:29.730Z,61.03
2022-11-06T19:38:58.471Z,60.63
2022-11-06T19:41:26.587Z,60.75
2022-11-06T19:43:56.174Z,63.38
2022-11-06T19:46:28.471Z,64.82
2022-11-06T19:49:01.721Z,62.28
2022-11-06T19:51:30.666Z,61.70
2022-11-06T19:53:58.570Z,63.10
2022-11-06T19:56:26.640Z,63.28
2022-11-06T19:58:55.930Z,64.78
2022-11-06T20:01:24.017Z,59.55
2022-11-06T20:03:51.940Z,54.22
2022-11-06T20:06:19.838Z,52.65
2022-11-06T20:08:48.886Z,54.05
2022-11-06T20:11:17.158Z,51.63
2022-11-06T20:13:46.401Z,53.90
2022-11-06T20:16:17.553Z,54.90
2022-11-06T20:18:46.039Z,52.17
2022-11-06T20:21:13.971Z,54.97
2022-11-06T20:23:41.847Z,51.40
2022-11-06T20:26:09.818Z,51.38
2022-11-06T20:28:37.736Z,51.97
2022-11-06T20:31:07.212Z,48.10
2022-11-06T20:33:37.393Z,48.22
2022-11-06T20:36:13.668Z,46.13
2022-11-06T20:38:42.352Z,48.13
2022-11-06T20:41:10.458Z,47.35
2022-11-06T20:43:38.345Z,50.45
2022-11-06T20:46:06.598Z,47.35
2022-11-06T20:48:36.875Z,47.90
2022-11-06T20:51:06.888Z,45.42
2022-11-06T20:53:36.479Z,44.65
2022-11-06T20:56:06.948Z,45.28
2022-11-06T20:58:34.887Z,46.83
2022-11-06T21:01:04.567Z,46.25
2022-11-06T21:03:33.011Z,52.47
2022-11-06T21:06:02.336Z,41.60
2022-11-06T21:08:32.738Z,35.90
2022-11-06T21:11:06.233Z,35.42
2022-11-06T21:13:35.688Z,34.17
2022-11-06T21:16:07.470Z,29.67
2022-11-06T21:18:36.407Z,31.13
2022-11-06T21:21:07.280Z,29.27
2022-11-06T21:23:35.981Z,27.35
2022-11-06T21:26:07.916Z,25.00
2022-11-06T21:28:37.412Z,23.98
2022-11-06T21:31:06.046Z,22.20
2022-11-06T21:33:33.968Z,21.95
2022-11-06T21:36:11.133Z,21.13
2022-11-06T21:38:39.304Z,20.13
2022-11-06T21:41:08.417Z,19.05
2022-11-06T21:43:36.617Z,18.52
2022-11-06T21:46:05.264Z,18.85
2022-11-06T21:48:46.004Z,17.10
2022-11-06T21:51:17.400Z,17.65
2022-11-06T21:54:02.692Z,15.98
2022-11-06T21:56:30.963Z,15.73
2022-11-06T21:59:00.683Z,15.35
2022-11-06T22:01:29.787Z,15.10
2022-11-06T22:03:57.763Z,14.18
2022-11-06T22:06:28.258Z,14.88
2022-11-06T22:08:59.170Z,14.95
2022-11-06T22:11:29.142Z,15.05
2022-11-06T22:13:58.837Z,13.68
2022-11-06T22:16:29.298Z,14.48
2022-11-06T22:18:57.294Z,14.30
2022-11-06T22:21:28.354Z,13.30
2022-11-06T22:23:56.485Z,13.65
2022-11-06T22:26:26.662Z,13.40
2022-11-06T22:28:55.615Z,14.00
2022-11-06T22:31:23.991Z,12.25
2022-11-06T22:33:53.928Z,12.82
2022-11-06T22:36:22.902Z,12.43
2022-11-06T22:38:52.860Z,12.80
2022-11-06T22:41:23.162Z,13.00
2022-11-06T22:43:51.396Z,11.93
2022-11-06T22:46:20.979Z,12.30
2022-11-06T22:48:49.683Z,11.52
2022-11-06T22:51:20.296Z,11.75
2022-11-06T22:53:50.241Z,12.68
2022-11-06T22:56:20.802Z,12.65
2022-11-06T22:58:48.806Z,11.30
2022-11-06T23:01:21.966Z,12.13
2022-11-06T23:03:50.318Z,11.32
2022-11-06T23:06:18.561Z,11.45
2022-11-06T23:08:47.239Z,11.43
2022-11-06T23:11:17.128Z,11.88
2022-11-06T23:13:46.438Z,11.25
2022-11-06T23:16:16.491Z,11.13
2022-11-06T23:18:44.990Z,10.73
2022-11-06T23:21:14.203Z,10.98
2022-11-06T23:23:42.671Z,11.48
2022-11-06T23:26:14.843Z,11.13
2022-11-06T23:28:43.490Z,10.98
2022-11-06T23:31:14.904Z,10.82
2022-11-06T23:33:43.505Z,11.23
2022-11-06T23:36:13.260Z,11.27
2022-11-06T23:38:41.785Z,11.35
2022-11-06T23:41:25.414Z,10.02
2022-11-06T23:43:53.406Z,11.20
2022-11-06T23:46:22.978Z,10.20
2022-11-06T23:48:51.068Z,10.13
2022-11-06T23:51:19.644Z,10.30
2022-11-06T23:53:47.612Z,9.82
2022-11-06T23:56:16.095Z,9.32
2022-11-06T23:58:44.459Z,10.32
